createdAt,value
2018-09-08T00:00:01.596Z,9.30
2018-09-08T00:01:01.784Z,9.80
2018-09-08T00:02:01.919Z,9.90
2018-09-08T00:03:02.057Z,10.40
2018-09-08T00:04:02.188Z,12.30
2018-09-08T00:05:02.353Z,10.80
2018-09-08T00:06:02.498Z,9.60
2018-09-08T00:07:02.635Z,10.40
2018-09-08T00:08:02.785Z,9.70
2018-09-08T00:09:02.931Z,10.40
2018-09-08T00:10:03.063Z,10.60
2018-09-08T00:11:03.198Z,11.30
2018-09-08T00:12:03.337Z,11.20
2018-09-08T00:13:03.493Z,11.90
2018-09-08T00:14:03.632Z,12.80
2018-09-08T00:15:03.764Z,13.30
2018-09-08T00:16:03.897Z,15.10
2018-09-08T00:17:04.048Z,14.00
2018-09-08T00:18:05.089Z,14.50
2018-09-08T00:19:04.370Z,13.60
2018-09-08T00:20:04.508Z,13.40
2018-09-08T00:21:04.718Z,14.10
2018-09-08T00:22:04.722Z,13.90
2018-09-08T00:23:04.862Z,13.40
2018-09-08T00:24:04.992Z,14.40
2018-09-08T00:25:05.133Z,14.50
2018-09-08T00:26:05.267Z,14.40
2018-09-08T00:27:05.404Z,15.00
2018-09-08T00:28:05.548Z,15.30
2018-09-08T00:29:05.681Z,15.20
2018-09-08T00:30:05.813Z,16.70
2018-09-08T00:31:05.951Z,17.20
2018-09-08T00:32:06.086Z,16.70
2018-09-08T00:33:06.223Z,17.80
2018-09-08T00:34:06.358Z,18.50
2018-09-08T00:35:06.489Z,16.20
2018-09-08T00:36:06.623Z,15.70
2018-09-08T00:37:06.762Z,16.10
2018-09-08T00:38:06.895Z,17.80
2018-09-08T00:39:07.031Z,16.50
2018-09-08T00:40:07.166Z,15.90
2018-09-08T00:41:07.303Z,16.50
2018-09-08T00:42:07.444Z,21.70
2018-09-08T00:43:07.573Z,14.70
2018-09-08T00:44:07.715Z,17.30
2018-09-08T00:45:07.845Z,14.30
2018-09-08T00:46:07.984Z,20.80
2018-09-08T00:47:08.134Z,19.60
2018-09-08T00:48:08.260Z,13.60
2018-09-08T00:49:08.395Z,30.60
2018-09-08T00:50:08.538Z,24.20
2018-09-08T00:51:08.678Z,12.90
2018-09-08T00:52:08.814Z,26.10
2018-09-08T00:53:08.950Z,33.70
2018-09-08T00:54:09.082Z,15.10
2018-09-08T00:55:09.215Z,34.70
2018-09-08T00:56:09.349Z,30.40
2018-09-08T00:57:09.559Z,39.60
2018-09-08T00:58:09.635Z,31.00
2018-09-08T00:59:09.773Z,34.10
2018-09-08T01:00:09.906Z,39.50
2018-09-08T01:01:10.052Z,28.50
2018-09-08T01:02:10.194Z,30.90
2018-09-08T01:03:10.326Z,22.60
2018-09-08T01:04:10.468Z,24.60
2018-09-08T01:05:10.595Z,35.60
2018-09-08T01:06:10.724Z,20.40
2018-09-08T01:07:10.858Z,28.20
2018-09-08T01:08:10.989Z,33.60
2018-09-08T01:09:11.145Z,29.30
2018-09-08T01:10:11.278Z,43.80
2018-09-08T01:11:11.414Z,25.80
2018-09-08T01:12:11.558Z,33.00
2018-09-08T01:13:11.692Z,21.50
2018-09-08T01:14:11.827Z,26.20
2018-09-08T01:15:11.962Z,25.30
2018-09-08T01:16:12.191Z,17.90
2018-09-08T01:17:12.194Z,19.70
2018-09-08T01:18:12.330Z,11.20
2018-09-08T01:19:12.465Z,13.50
2018-09-08T01:20:12.626Z,13.10
2018-09-08T01:21:12.767Z,24.70
2018-09-08T01:22:12.904Z,21.50
2018-09-08T01:23:13.043Z,16.90
2018-09-08T01:24:13.184Z,36.90
2018-09-08T01:25:13.311Z,13.10
2018-09-08T01:26:13.446Z,16.90
2018-09-08T01:27:13.604Z,10.50
2018-09-08T01:28:13.731Z,20.20
2018-09-08T01:29:13.868Z,49.90
2018-09-08T01:30:14.032Z,113.80
2018-09-08T01:31:14.158Z,91.10
2018-09-08T01:32:14.297Z,124.40
2018-09-08T01:33:14.450Z,147.60
2018-09-08T01:34:14.588Z,132.10
2018-09-08T01:35:14.721Z,121.70
2018-09-08T01:36:14.879Z,240.60
2018-09-08T01:37:15.006Z,157.00
2018-09-08T01:38:15.141Z,112.40
2018-09-08T01:39:15.277Z,35.80
2018-09-08T01:40:15.418Z,181.20
2018-09-08T01:41:15.557Z,211.20
2018-09-08T01:42:15.690Z,139.00
2018-09-08T01:43:15.819Z,97.80
2018-09-08T01:44:15.959Z,113.30
2018-09-08T01:45:16.094Z,230.10
2018-09-08T01:46:16.237Z,116.90
2018-09-08T01:47:16.372Z,79.70
2018-09-08T01:48:17.108Z,120.40
2018-09-08T01:49:16.645Z,35.70
2018-09-08T01:50:16.777Z,209.80
2018-09-08T01:51:16.913Z,228.20
2018-09-08T01:52:17.051Z,106.90
2018-09-08T01:53:17.188Z,174.50
2018-09-08T01:54:17.320Z,96.10
2018-09-08T01:55:17.453Z,45.10
2018-09-08T01:56:17.589Z,152.80
2018-09-08T01:57:17.727Z,56.60
2018-09-08T01:58:17.864Z,62.10
2018-09-08T01:59:18.006Z,87.80
2018-09-08T02:00:18.143Z,141.20
2018-09-08T02:01:18.277Z,70.40
2018-09-08T02:02:18.407Z,84.30
2018-09-08T02:03:18.547Z,78.60
2018-09-08T02:04:18.678Z,56.30
2018-09-08T02:05:18.814Z,25.40
2018-09-08T02:06:18.947Z,90.50
2018-09-08T02:07:19.083Z,73.20
2018-09-08T02:08:19.214Z,99.70
2018-09-08T02:09:19.349Z,86.80
2018-09-08T02:10:19.476Z,55.90
2018-09-08T02:11:19.613Z,67.30
2018-09-08T02:12:19.746Z,66.30
2018-09-08T02:13:19.880Z,66.00
2018-09-08T02:14:20.030Z,126.00
2018-09-08T02:15:20.163Z,145.50
2018-09-08T02:16:20.298Z,54.20
2018-09-08T02:17:20.451Z,67.90
2018-09-08T02:18:20.600Z,84.90
2018-09-08T02:19:20.734Z,46.20
2018-09-08T02:20:20.866Z,42.30
2018-09-08T02:21:21.045Z,76.10
2018-09-08T02:22:21.158Z,40.80
2018-09-08T02:23:21.290Z,38.00
2018-09-08T02:24:21.430Z,47.00
2018-09-08T02:25:21.578Z,46.10
2018-09-08T02:26:21.704Z,67.70
2018-09-08T02:27:21.831Z,32.40
2018-09-08T02:28:21.992Z,212.30
2018-09-08T02:29:22.120Z,92.90
2018-09-08T02:30:22.257Z,182.20
2018-09-08T02:31:22.391Z,115.60
2018-09-08T02:32:22.548Z,67.30
2018-09-08T02:33:22.674Z,87.70
2018-09-08T02:34:22.807Z,66.50
2018-09-08T02:35:22.935Z,98.90
2018-09-08T02:36:23.085Z,52.00
2018-09-08T02:37:23.214Z,52.80
2018-09-08T02:38:23.349Z,80.80
2018-09-08T02:39:23.487Z,66.80
2018-09-08T02:40:23.633Z,66.50
2018-09-08T02:41:23.767Z,80.90
2018-09-08T02:42:23.906Z,63.50
2018-09-08T02:43:24.063Z,80.30
2018-09-08T02:44:24.194Z,77.50
2018-09-08T02:45:24.332Z,82.70
2018-09-08T02:46:24.472Z,82.10
2018-09-08T02:47:24.602Z,69.30
2018-09-08T02:48:24.734Z,42.70
2018-09-08T02:49:24.870Z,58.40
2018-09-08T02:50:25.009Z,48.00
2018-09-08T02:51:25.165Z,57.60
2018-09-08T02:52:25.294Z,65.70
2018-09-08T02:53:25.431Z,38.70
2018-09-08T02:54:25.561Z,22.90
2018-09-08T02:55:25.709Z,30.30
2018-09-08T02:56:25.846Z,32.80
2018-09-08T02:57:25.976Z,33.40
2018-09-08T02:58:26.118Z,28.60
2018-09-08T02:59:26.248Z,36.80
2018-09-08T03:00:26.390Z,93.00
2018-09-08T03:01:26.524Z,46.80
2018-09-08T03:02:26.658Z,105.90
2018-09-08T03:03:26.786Z,42.80
2018-09-08T03:04:26.922Z,37.70
2018-09-08T03:05:27.056Z,40.00
2018-09-08T03:06:27.190Z,124.60
2018-09-08T03:07:27.324Z,121.20
2018-09-08T03:08:27.462Z,27.90
2018-09-08T03:09:27.603Z,50.50
2018-09-08T03:10:27.736Z,38.50
2018-09-08T03:11:27.866Z,64.70
2018-09-08T03:12:28.000Z,64.40
2018-09-08T03:13:28.134Z,52.90
2018-09-08T03:14:28.272Z,35.40
2018-09-08T03:15:28.416Z,43.40
2018-09-08T03:16:28.544Z,25.30
2018-09-08T03:17:28.684Z,50.50
2018-09-08T03:18:28.833Z,23.60
2018-09-08T03:19:28.962Z,24.10
2018-09-08T03:20:29.098Z,20.00
2018-09-08T03:21:29.231Z,11.10
2018-09-08T03:22:29.373Z,14.50
2018-09-08T03:23:29.505Z,63.50
2018-09-08T03:24:29.638Z,17.20
2018-09-08T03:25:29.766Z,68.10
2018-09-08T03:26:29.899Z,16.00
2018-09-08T03:27:30.038Z,29.70
2018-09-08T03:28:30.176Z,46.90
2018-09-08T03:29:30.311Z,106.50
2018-09-08T03:30:30.441Z,33.40
2018-09-08T03:31:30.573Z,50.00
2018-09-08T03:32:30.709Z,112.40
2018-09-08T03:33:30.848Z,108.00
2018-09-08T03:34:30.979Z,196.30
2018-09-08T03:35:31.109Z,50.20
2018-09-08T03:36:31.247Z,19.00
2018-09-08T03:37:31.383Z,22.50
2018-09-08T03:38:31.507Z,54.60
2018-09-08T03:39:31.642Z,83.00
2018-09-08T03:40:31.823Z,53.10
2018-09-08T03:41:31.916Z,51.10
2018-09-08T03:42:32.051Z,72.90
2018-09-08T03:43:32.222Z,98.20
2018-09-08T03:44:32.352Z,61.10
2018-09-08T03:45:32.483Z,74.70
2018-09-08T03:46:32.620Z,20.50
2018-09-08T03:47:32.802Z,43.80
2018-09-08T03:48:32.917Z,23.20
2018-09-08T03:49:33.051Z,18.70
2018-09-08T03:50:33.186Z,17.30
2018-09-08T03:51:33.330Z,33.00
2018-09-08T03:52:33.467Z,22.90
2018-09-08T03:53:33.603Z,15.20
2018-09-08T03:54:33.735Z,34.10
2018-09-08T03:55:33.892Z,43.70
2018-09-08T03:56:34.637Z,12.20
2018-09-08T03:57:34.144Z,13.40
2018-09-08T03:58:34.297Z,12.90
2018-09-08T03:59:34.428Z,40.10
2018-09-08T04:00:34.559Z,121.70
2018-09-08T04:01:34.695Z,57.80
2018-09-08T04:02:34.861Z,61.10
2018-09-08T04:03:34.988Z,37.20
2018-09-08T04:04:35.130Z,89.10
2018-09-08T04:05:35.287Z,42.50
2018-09-08T04:06:35.401Z,40.30
2018-09-08T04:07:35.533Z,69.70
2018-09-08T04:08:35.669Z,63.20
2018-09-08T04:09:35.804Z,86.40
2018-09-08T04:10:35.973Z,59.00
2018-09-08T04:11:36.084Z,75.40
2018-09-08T04:12:36.218Z,143.80
2018-09-08T04:13:36.353Z,78.90
2018-09-08T04:14:36.509Z,78.60
2018-09-08T04:15:36.638Z,127.70
2018-09-08T04:16:36.772Z,121.50
2018-09-08T04:17:36.907Z,92.90
2018-09-08T04:18:37.040Z,120.90
2018-09-08T04:19:37.172Z,179.60
2018-09-08T04:20:37.309Z,108.20
2018-09-08T04:21:37.451Z,102.70
2018-09-08T04:22:37.585Z,86.60
2018-09-08T04:23:37.718Z,96.00
2018-09-08T04:24:37.853Z,68.10
2018-09-08T04:25:37.997Z,88.70
2018-09-08T04:26:38.128Z,134.10
2018-09-08T04:27:38.254Z,95.10
2018-09-08T04:28:38.393Z,95.60
2018-09-08T04:29:38.605Z,75.30
2018-09-08T04:30:38.662Z,54.70
2018-09-08T04:31:38.799Z,53.80
2018-09-08T04:32:38.934Z,56.60
2018-09-08T04:33:39.067Z,80.10
2018-09-08T04:34:39.202Z,52.70
2018-09-08T04:35:39.343Z,96.30
2018-09-08T04:36:39.482Z,111.80
2018-09-08T04:37:39.611Z,50.10
2018-09-08T04:38:39.743Z,78.30
2018-09-08T04:39:39.879Z,92.70
2018-09-08T04:40:40.019Z,58.80
2018-09-08T04:41:40.141Z,61.80
2018-09-08T04:42:40.280Z,73.50
2018-09-08T04:43:40.413Z,61.70
2018-09-08T04:44:40.543Z,54.00
2018-09-08T04:45:40.705Z,53.10
2018-09-08T04:46:40.841Z,34.80
2018-09-08T04:47:40.973Z,59.50
2018-09-08T04:48:41.107Z,61.60
2018-09-08T04:49:41.243Z,74.50
2018-09-08T04:50:41.381Z,80.60
2018-09-08T04:51:41.512Z,71.60
2018-09-08T04:52:41.646Z,60.30
2018-09-08T04:53:41.776Z,71.00
2018-09-08T04:54:41.909Z,80.10
2018-09-08T04:55:42.044Z,60.70
2018-09-08T04:56:42.179Z,36.30
2018-09-08T04:57:42.307Z,47.10
2018-09-08T04:58:42.447Z,47.60
2018-09-08T04:59:42.590Z,50.20
2018-09-08T05:00:42.727Z,48.20
2018-09-08T05:01:42.858Z,58.00
2018-09-08T05:02:42.988Z,44.60
2018-09-08T05:03:43.142Z,45.30
2018-09-08T05:04:43.272Z,42.90
2018-09-08T05:05:43.398Z,42.60
2018-09-08T05:06:43.548Z,36.70
2018-09-08T05:07:43.679Z,37.10
2018-09-08T05:08:43.810Z,39.00
2018-09-08T05:09:43.938Z,43.90
2018-09-08T05:10:44.071Z,39.00
2018-09-08T05:11:44.212Z,31.00
2018-09-08T05:12:44.420Z,34.30
2018-09-08T05:13:44.470Z,45.90
2018-09-08T05:14:45.157Z,63.70
2018-09-08T05:17:16.711Z,38.50
2018-09-08T05:18:16.812Z,43.50
2018-09-08T05:19:16.953Z,25.80
2018-09-08T05:20:17.082Z,35.00
2018-09-08T05:21:17.249Z,32.90
2018-09-08T05:22:17.372Z,54.10
2018-09-08T05:23:17.509Z,13.90
2018-09-08T05:24:17.638Z,61.10
2018-09-08T05:25:17.796Z,39.40
2018-09-08T05:26:17.924Z,68.00
2018-09-08T05:27:18.063Z,49.20
2018-09-08T05:28:18.218Z,93.90
2018-09-08T05:29:18.343Z,15.60
2018-09-08T05:30:18.477Z,91.70
2018-09-08T05:31:18.616Z,73.50
2018-09-08T05:32:18.796Z,56.50
2018-09-08T05:33:18.931Z,87.90
2018-09-08T05:34:19.069Z,43.40
2018-09-08T05:35:19.194Z,66.50
2018-09-08T05:36:19.323Z,88.30
2018-09-08T05:37:19.456Z,72.30
2018-09-08T05:38:19.589Z,165.50
2018-09-08T05:39:19.748Z,26.70
2018-09-08T05:40:19.875Z,24.00
2018-09-08T05:41:20.014Z,17.40
2018-09-08T05:42:20.145Z,39.80
2018-09-08T05:43:20.285Z,20.90
2018-09-08T05:44:20.423Z,37.20
2018-09-08T05:45:20.556Z,14.80
2018-09-08T05:46:20.699Z,17.10
2018-09-08T05:47:20.839Z,57.40
2018-09-08T05:48:20.967Z,67.10
2018-09-08T05:49:21.094Z,110.10
2018-09-08T05:50:21.229Z,68.80
2018-09-08T05:51:21.361Z,66.30
2018-09-08T05:52:21.500Z,76.50
2018-09-08T05:53:21.633Z,81.60
2018-09-08T05:54:21.772Z,76.90
2018-09-08T05:55:21.912Z,62.80
2018-09-08T05:56:22.053Z,62.00
2018-09-08T05:57:22.190Z,76.20
2018-09-08T05:58:22.343Z,38.00
2018-09-08T05:59:22.454Z,73.70
2018-09-08T06:00:22.591Z,38.70
2018-09-08T06:01:22.787Z,72.50
2018-09-08T06:02:22.880Z,51.30
2018-09-08T06:03:23.277Z,64.10
2018-09-08T06:04:23.151Z,46.40
2018-09-08T06:05:23.293Z,39.70
2018-09-08T06:06:23.432Z,36.20
2018-09-08T06:07:23.569Z,50.50
2018-09-08T06:08:23.980Z,67.60
2018-09-08T06:09:23.836Z,38.30
2018-09-08T06:10:24.035Z,67.90
2018-09-08T06:11:24.104Z,64.70
2018-09-08T06:12:24.244Z,66.10
2018-09-08T06:13:24.423Z,59.10
2018-09-08T06:14:24.545Z,31.60
2018-09-08T06:15:24.694Z,86.70
2018-09-08T06:16:24.830Z,24.40
2018-09-08T06:17:25.008Z,63.20
2018-09-08T06:18:25.160Z,184.80
2018-09-08T06:19:25.235Z,96.10
2018-09-08T06:20:25.367Z,83.20
2018-09-08T06:21:25.502Z,78.50
2018-09-08T06:22:25.632Z,51.00
2018-09-08T06:23:25.760Z,72.60
2018-09-08T06:24:25.917Z,97.80
2018-09-08T06:25:26.104Z,170.10
2018-09-08T06:26:26.174Z,51.30
2018-09-08T06:27:26.308Z,50.70
2018-09-08T06:28:26.549Z,47.20
2018-09-08T06:29:26.598Z,56.50
2018-09-08T06:30:26.738Z,29.90
2018-09-08T06:31:26.871Z,53.30
2018-09-08T06:32:27.029Z,49.20
2018-09-08T06:33:27.244Z,86.50
2018-09-08T06:34:27.296Z,62.50
2018-09-08T06:35:27.443Z,56.80
2018-09-08T06:36:27.578Z,68.90
2018-09-08T06:37:27.705Z,56.90
2018-09-08T06:38:27.845Z,61.80
2018-09-08T06:39:27.981Z,66.80
2018-09-08T06:40:28.111Z,60.20
2018-09-08T06:41:28.235Z,28.10
2018-09-08T06:42:28.374Z,40.50
2018-09-08T06:43:28.510Z,54.70
2018-09-08T06:44:28.646Z,60.20
2018-09-08T06:45:28.781Z,43.50
2018-09-08T06:46:28.925Z,31.80
2018-09-08T06:47:29.065Z,35.50
2018-09-08T06:48:29.199Z,42.30
2018-09-08T06:49:29.332Z,38.30
2018-09-08T06:50:29.465Z,44.90
2018-09-08T06:51:29.599Z,53.10
2018-09-08T06:52:29.732Z,54.20
2018-09-08T06:53:29.866Z,39.50
2018-09-08T06:54:30.007Z,63.30
2018-09-08T06:55:30.144Z,71.70
2018-09-08T06:56:30.268Z,50.70
2018-09-08T06:57:30.394Z,21.80
2018-09-08T06:58:30.529Z,27.20
2018-09-08T06:59:30.663Z,35.50
2018-09-08T07:00:30.796Z,15.30
2018-09-08T07:01:30.934Z,20.60
2018-09-08T07:02:31.073Z,20.40
2018-09-08T07:03:31.301Z,12.90
2018-09-08T07:04:31.350Z,16.20
2018-09-08T07:05:31.493Z,17.40
2018-09-08T07:06:31.622Z,28.80
2018-09-08T07:07:31.756Z,21.70
2018-09-08T07:08:31.913Z,15.60
2018-09-08T07:09:32.026Z,11.60
2018-09-08T07:10:32.172Z,11.60
2018-09-08T07:11:32.303Z,11.00
2018-09-08T07:12:32.440Z,10.70
2018-09-08T07:13:32.585Z,10.60
2018-09-08T07:14:32.719Z,12.10
2018-09-08T07:15:32.856Z,11.00
2018-09-08T07:16:33.029Z,11.30
2018-09-08T07:17:33.162Z,11.30
2018-09-08T07:18:33.312Z,11.70
2018-09-08T07:19:33.441Z,11.00
2018-09-08T07:20:33.581Z,11.00
2018-09-08T07:21:33.715Z,10.40
2018-09-08T07:22:33.848Z,9.80
2018-09-08T07:23:33.980Z,10.10
2018-09-08T07:24:34.116Z,10.30
2018-09-08T07:25:34.257Z,10.20
2018-09-08T07:26:34.389Z,12.20
2018-09-08T07:27:34.529Z,12.20
2018-09-08T07:28:34.662Z,11.30
2018-09-08T07:29:34.802Z,11.50
2018-09-08T07:30:34.939Z,11.70
2018-09-08T07:31:35.075Z,12.00
2018-09-08T07:32:35.211Z,10.90
2018-09-08T07:33:35.381Z,11.90
2018-09-08T07:34:35.508Z,11.80
2018-09-08T07:35:35.653Z,12.20
2018-09-08T07:36:35.781Z,11.50
2018-09-08T07:37:35.947Z,16.00
2018-09-08T07:38:36.061Z,12.20
2018-09-08T07:39:36.192Z,15.00
2018-09-08T07:40:36.331Z,12.40
2018-09-08T07:41:36.505Z,12.30
2018-09-08T07:42:36.635Z,11.10
2018-09-08T07:43:36.769Z,11.70
2018-09-08T07:44:36.909Z,11.70
2018-09-08T07:45:37.057Z,11.60
2018-09-08T07:46:37.189Z,11.90
2018-09-08T07:47:37.333Z,12.70
2018-09-08T07:48:37.468Z,11.90
2018-09-08T07:49:37.599Z,10.70
2018-09-08T07:50:37.736Z,11.50
2018-09-08T07:51:37.896Z,12.30
2018-09-08T07:52:38.015Z,11.60
2018-09-08T07:53:38.205Z,12.20
2018-09-08T07:54:38.286Z,12.60
2018-09-08T07:55:38.440Z,11.80
2018-09-08T07:56:38.590Z,12.50
2018-09-08T07:57:38.723Z,12.40
2018-09-08T07:58:38.875Z,12.10
2018-09-08T07:59:39.017Z,12.60
2018-09-08T08:00:39.163Z,13.00
2018-09-08T08:01:39.303Z,11.90
2018-09-08T08:02:39.437Z,11.40
2018-09-08T08:03:39.621Z,10.10
2018-09-08T08:04:39.736Z,10.00
2018-09-08T08:05:39.880Z,10.10
2018-09-08T08:06:40.035Z,10.40
2018-09-08T08:07:40.188Z,9.50
2018-09-08T08:08:40.316Z,9.90
2018-09-08T08:09:40.461Z,10.40
2018-09-08T08:10:40.593Z,9.10
2018-09-08T08:11:40.739Z,8.80
2018-09-08T08:12:40.881Z,8.30
2018-09-08T08:13:41.016Z,8.50
2018-09-08T08:14:41.147Z,8.90
2018-09-08T08:15:41.309Z,8.10
2018-09-08T08:16:41.432Z,7.10
2018-09-08T08:17:41.571Z,7.90
2018-09-08T08:18:41.712Z,8.20
2018-09-08T08:19:41.884Z,6.60
2018-09-08T08:20:42.009Z,6.60
2018-09-08T08:21:42.140Z,8.00
2018-09-08T08:22:42.290Z,7.80
2018-09-08T08:23:42.423Z,6.30
2018-09-08T08:24:42.559Z,6.60
2018-09-08T08:25:42.692Z,6.30
2018-09-08T08:26:42.835Z,6.90
2018-09-08T08:27:42.968Z,6.40
2018-09-08T08:28:43.103Z,5.70
2018-09-08T08:29:43.242Z,6.50
2018-09-08T08:30:43.378Z,5.30
2018-09-08T08:31:43.513Z,6.10
2018-09-08T08:32:43.646Z,7.10
2018-09-08T08:33:43.786Z,6.40
2018-09-08T08:34:43.923Z,6.00
2018-09-08T08:35:44.069Z,6.90
2018-09-08T08:36:44.207Z,5.50
2018-09-08T08:37:44.343Z,6.30
2018-09-08T08:38:44.475Z,7.50
2018-09-08T08:39:44.613Z,5.80
2018-09-08T08:40:44.759Z,5.00
2018-09-08T08:41:44.900Z,5.80
2018-09-08T08:42:45.038Z,5.30
2018-09-08T08:43:45.170Z,4.90
2018-09-08T08:44:45.308Z,5.70
2018-09-08T08:45:45.455Z,5.80
2018-09-08T08:46:45.587Z,5.20
2018-09-08T08:47:45.720Z,6.40
2018-09-08T08:48:45.856Z,5.30
2018-09-08T08:49:45.999Z,4.30
2018-09-08T08:50:46.145Z,5.10
2018-09-08T08:51:46.278Z,4.40
2018-09-08T08:52:46.421Z,4.60
2018-09-08T08:53:46.617Z,5.60
2018-09-08T08:54:46.744Z,4.30
2018-09-08T08:55:46.900Z,5.00
2018-09-08T08:56:47.022Z,5.10
2018-09-08T08:57:47.180Z,5.90
2018-09-08T08:58:47.321Z,4.70
2018-09-08T08:59:47.461Z,4.30
2018-09-08T09:00:47.602Z,4.80
2018-09-08T09:01:47.736Z,4.60
2018-09-08T09:02:47.874Z,4.60
2018-09-08T09:03:48.021Z,6.10
2018-09-08T09:04:48.145Z,3.50
2018-09-08T09:05:48.284Z,4.60
2018-09-08T09:06:48.420Z,5.00
2018-09-08T09:07:48.557Z,6.50
2018-09-08T09:08:49.055Z,5.20
2018-09-08T09:09:48.831Z,4.30
2018-09-08T09:10:48.972Z,6.60
2018-09-08T09:11:49.467Z,4.00
2018-09-08T09:12:49.300Z,4.30
2018-09-08T09:13:49.377Z,5.90
2018-09-08T09:14:49.512Z,5.30
2018-09-08T09:15:49.651Z,4.30
2018-09-08T09:16:49.785Z,4.50
2018-09-08T09:17:49.922Z,4.10
2018-09-08T09:18:50.610Z,4.10
2018-09-08T09:19:50.191Z,4.40
2018-09-08T09:20:50.353Z,3.70
2018-09-08T09:21:50.488Z,4.00
2018-09-08T09:22:50.625Z,5.00
2018-09-08T09:23:50.761Z,4.60
2018-09-08T09:24:51.415Z,4.60
2018-09-08T09:25:51.750Z,3.60
2018-09-08T09:26:51.174Z,7.50
2018-09-08T09:27:51.327Z,3.90
2018-09-08T09:28:51.467Z,5.10
2018-09-08T09:29:51.602Z,4.00
2018-09-08T09:30:51.737Z,4.20
2018-09-08T09:31:51.926Z,4.10
2018-09-08T09:32:52.043Z,3.70
2018-09-08T09:33:52.181Z,3.40
2018-09-08T09:34:52.408Z,4.10
2018-09-08T09:35:52.492Z,4.00
2018-09-08T09:36:52.625Z,3.70
2018-09-08T09:37:52.776Z,3.70
2018-09-08T09:38:52.948Z,3.70
2018-09-08T09:39:53.084Z,4.20
2018-09-08T09:40:53.224Z,5.30
2018-09-08T09:41:53.360Z,3.60
2018-09-08T09:42:53.541Z,3.60
2018-09-08T09:43:53.660Z,5.60
2018-09-08T09:44:53.801Z,4.90
2018-09-08T09:45:53.967Z,3.20
2018-09-08T09:46:54.103Z,3.00
2018-09-08T09:47:54.274Z,4.40
2018-09-08T09:48:54.387Z,2.70
2018-09-08T09:49:54.615Z,4.50
2018-09-08T09:50:54.627Z,3.60
2018-09-08T09:51:54.764Z,4.10
2018-09-08T09:52:54.904Z,2.80
2018-09-08T09:53:55.054Z,3.50
2018-09-08T09:54:55.194Z,3.10
2018-09-08T09:55:55.330Z,4.20
2018-09-08T09:56:55.471Z,3.00
2018-09-08T09:57:55.640Z,2.60
2018-09-08T09:58:55.776Z,4.70
2018-09-08T09:59:55.917Z,3.30
2018-09-08T10:00:56.109Z,4.20
2018-09-08T10:01:56.212Z,5.60
2018-09-08T10:02:56.351Z,2.90
2018-09-08T10:03:56.488Z,5.00
2018-09-08T10:04:56.626Z,2.80
2018-09-08T10:05:56.800Z,3.30
2018-09-08T10:06:56.921Z,3.90
2018-09-08T10:07:57.048Z,4.30
2018-09-08T10:08:57.184Z,3.50
2018-09-08T10:09:57.323Z,5.40
2018-09-08T10:10:57.458Z,3.80
2018-09-08T10:11:57.609Z,3.80
2018-09-08T10:12:57.733Z,3.40
2018-09-08T10:13:57.882Z,4.40
2018-09-08T10:14:58.025Z,5.30
2018-09-08T10:15:58.160Z,3.40
2018-09-08T10:16:58.304Z,3.40
2018-09-08T10:17:58.441Z,3.80
2018-09-08T10:18:58.564Z,4.30
2018-09-08T10:19:58.720Z,7.10
2018-09-08T10:20:58.861Z,6.00
2018-09-08T10:21:59.000Z,5.00
2018-09-08T10:22:59.173Z,4.40
2018-09-08T10:24:05.155Z,3.90
2018-09-08T10:24:59.416Z,4.60
2018-09-08T10:25:59.561Z,3.00
2018-09-08T10:26:59.697Z,4.20
2018-09-08T10:27:59.832Z,4.50
2018-09-08T10:28:59.975Z,6.60
2018-09-08T10:30:00.546Z,5.10
2018-09-08T10:31:00.772Z,5.00
2018-09-08T10:32:00.436Z,4.40
2018-09-08T10:33:00.576Z,4.80
2018-09-08T10:34:00.730Z,3.40
2018-09-08T10:35:00.863Z,3.80
2018-09-08T10:36:01.010Z,3.30
2018-09-08T10:37:01.143Z,4.00
2018-09-08T10:38:01.275Z,4.90
2018-09-08T10:39:01.410Z,5.70
2018-09-08T10:40:01.549Z,4.40
2018-09-08T10:41:01.690Z,21.90
2018-09-08T10:42:01.828Z,15.60
2018-09-08T10:43:01.963Z,13.00
2018-09-08T10:44:02.105Z,4.40
2018-09-08T10:45:02.244Z,4.10
2018-09-08T10:46:02.381Z,4.10
2018-09-08T10:47:02.523Z,5.30
2018-09-08T10:48:02.677Z,5.50
2018-09-08T10:49:02.811Z,4.10
2018-09-08T10:50:02.952Z,4.20
2018-09-08T10:51:03.148Z,3.60
2018-09-08T10:52:03.270Z,5.10
2018-09-08T10:53:03.416Z,3.00
2018-09-08T10:54:03.558Z,3.00
2018-09-08T10:55:03.696Z,2.20
2018-09-08T10:56:03.844Z,2.80
2018-09-08T10:57:03.974Z,3.40
2018-09-08T10:58:04.119Z,4.60
2018-09-08T10:59:04.256Z,4.00
2018-09-08T11:00:04.412Z,4.20
2018-09-08T11:01:04.533Z,4.50
2018-09-08T11:02:04.836Z,3.50
2018-09-08T11:03:04.829Z,4.30
2018-09-08T11:04:04.958Z,3.70
2018-09-08T11:05:05.097Z,3.60
2018-09-08T11:06:05.240Z,3.20
2018-09-08T11:07:05.413Z,2.70
2018-09-08T11:08:05.553Z,5.50
2018-09-08T11:09:05.689Z,4.90
2018-09-08T11:10:05.836Z,2.60
2018-09-08T11:11:05.972Z,6.10
2018-09-08T11:12:06.108Z,2.70
2018-09-08T11:13:06.254Z,3.60
2018-09-08T11:14:06.383Z,3.80
2018-09-08T11:15:06.512Z,3.70
2018-09-08T11:16:06.655Z,2.50
2018-09-08T11:17:06.807Z,3.20
2018-09-08T11:18:06.941Z,2.70
2018-09-08T11:19:07.072Z,3.20
2018-09-08T11:20:07.215Z,2.90
2018-09-08T11:21:07.355Z,3.00
2018-09-08T11:22:07.498Z,4.10
2018-09-08T11:23:07.643Z,3.00
2018-09-08T11:24:07.785Z,3.40
2018-09-08T11:25:07.925Z,2.80
2018-09-08T11:26:08.071Z,4.00
2018-09-08T11:27:08.205Z,2.10
2018-09-08T11:28:08.354Z,4.20
2018-09-08T11:29:08.513Z,3.20
2018-09-08T11:30:08.655Z,3.50
2018-09-08T11:31:08.824Z,3.40
2018-09-08T11:32:08.960Z,4.40
2018-09-08T11:33:09.108Z,2.40
2018-09-08T11:34:09.246Z,2.40
2018-09-08T11:35:09.407Z,3.10
2018-09-08T11:36:09.517Z,4.10
2018-09-08T11:37:09.658Z,2.70
2018-09-08T11:38:09.879Z,2.80
2018-09-08T11:39:09.935Z,4.30
2018-09-08T11:40:10.078Z,4.00
2018-09-08T11:41:10.221Z,2.80
2018-09-08T11:42:10.357Z,3.10
2018-09-08T11:43:10.510Z,2.70
2018-09-08T11:44:10.651Z,2.90
2018-09-08T11:45:10.811Z,2.00
2018-09-08T11:46:10.948Z,2.10
2018-09-08T11:47:11.088Z,1.60
2018-09-08T11:48:11.228Z,2.90
2018-09-08T11:49:11.369Z,3.90
2018-09-08T11:50:11.503Z,4.60
2018-09-08T11:51:11.645Z,2.10
2018-09-08T11:52:11.796Z,3.70
2018-09-08T11:53:11.925Z,2.90
2018-09-08T11:54:12.070Z,1.90
2018-09-08T11:55:12.211Z,1.80
2018-09-08T11:56:12.350Z,2.30
2018-09-08T11:57:12.486Z,2.80
2018-09-08T11:58:12.627Z,4.00
2018-09-08T11:59:12.761Z,2.70
2018-09-08T12:00:12.897Z,4.00
2018-09-08T12:01:13.036Z,1.70
2018-09-08T12:02:13.199Z,3.40
2018-09-08T12:03:13.320Z,2.50
2018-09-08T12:04:13.461Z,6.10
2018-09-08T12:05:13.596Z,2.50
2018-09-08T12:06:13.743Z,2.50
2018-09-08T12:07:13.884Z,2.20
2018-09-08T12:08:14.031Z,2.70
2018-09-08T12:09:14.174Z,3.10
2018-09-08T12:10:14.315Z,3.30
2018-09-08T12:11:14.461Z,2.50
2018-09-08T12:12:14.613Z,3.20
2018-09-08T12:13:14.770Z,2.90
2018-09-08T12:14:14.916Z,2.80
2018-09-08T12:15:15.077Z,3.30
2018-09-08T12:16:15.207Z,2.00
2018-09-08T12:17:15.398Z,4.30
2018-09-08T12:18:15.552Z,5.40
2018-09-08T12:19:15.769Z,11.50
2018-09-08T12:20:15.846Z,9.60
2018-09-08T12:21:16.038Z,6.90
2018-09-08T12:22:16.207Z,14.60
2018-09-08T12:23:16.321Z,9.20
2018-09-08T12:24:16.472Z,4.70
2018-09-08T12:25:16.643Z,3.70
2018-09-08T12:26:16.775Z,3.00
2018-09-08T12:27:16.920Z,3.30
2018-09-08T12:28:17.070Z,2.60
2018-09-08T12:29:17.245Z,4.00
2018-09-08T12:30:17.390Z,3.10
2018-09-08T12:31:17.553Z,2.60
2018-09-08T12:32:17.690Z,3.70
2018-09-08T12:33:17.866Z,2.10
2018-09-08T12:34:18.014Z,4.50
2018-09-08T12:35:18.166Z,2.60
2018-09-08T12:36:18.317Z,4.10
2018-09-08T12:37:18.553Z,2.40
2018-09-08T12:38:18.648Z,2.70
2018-09-08T12:39:18.838Z,1.80
2018-09-08T12:40:18.989Z,3.00
2018-09-08T12:41:19.168Z,3.70
2018-09-08T12:42:19.298Z,3.70
2018-09-08T12:43:19.447Z,3.90
2018-09-08T12:44:19.596Z,3.60
2018-09-08T12:45:19.765Z,3.40
2018-09-08T12:46:19.910Z,2.50
2018-09-08T12:47:20.059Z,3.80
2018-09-08T12:48:20.210Z,2.40
2018-09-08T12:49:20.378Z,5.10
2018-09-08T12:50:20.560Z,3.50
2018-09-08T12:51:20.675Z,2.50
2018-09-08T12:52:20.820Z,1.70
2018-09-08T12:53:21.009Z,2.60
2018-09-08T12:54:21.136Z,1.90
2018-09-08T12:55:21.279Z,3.60
2018-09-08T12:56:21.427Z,3.20
2018-09-08T12:57:21.628Z,2.50
2018-09-08T12:58:21.741Z,2.90
2018-09-08T12:59:21.921Z,2.30
2018-09-08T13:00:22.035Z,1.90
2018-09-08T13:01:22.209Z,2.20
2018-09-08T13:02:22.398Z,3.10
2018-09-08T13:03:22.548Z,2.00